createdAt,value
2023-01-25T00:02:10.909Z,12.63
2023-01-25T00:04:40.342Z,12.25
2023-01-25T00:07:10.102Z,11.88
2023-01-25T00:09:40.995Z,13.63
2023-01-25T00:12:10.681Z,10.93
2023-01-25T00:14:40.297Z,12.30
2023-01-25T00:17:10.199Z,12.18
2023-01-25T00:19:39.486Z,12.20
2023-01-25T00:22:09.115Z,12.32
2023-01-25T00:24:38.557Z,11.68
2023-01-25T00:27:09.606Z,12.48
2023-01-25T00:29:38.870Z,13.02
2023-01-25T00:32:59.494Z,14.38
2023-01-25T00:35:33.224Z,12.85
2023-01-25T00:38:07.943Z,12.40
2023-01-25T00:40:37.686Z,11.85
2023-01-25T00:43:08.908Z,12.57
2023-01-25T00:45:38.339Z,13.82
2023-01-25T00:48:08.596Z,13.48
2023-01-25T00:50:39.495Z,13.38
2023-01-25T00:53:09.191Z,10.98
2023-01-25T00:55:38.502Z,12.25
2023-01-25T00:58:09.644Z,12.65
2023-01-25T01:00:38.912Z,13.68
2023-01-25T01:03:08.492Z,12.75
2023-01-25T01:05:38.318Z,11.55
2023-01-25T01:08:07.972Z,12.30
2023-01-25T01:10:37.235Z,12.43
2023-01-25T01:13:07.042Z,13.52
2023-01-25T01:15:39.679Z,14.02
2023-01-25T01:18:09.320Z,14.50
2023-01-25T01:20:50.643Z,13.70
2023-01-25T01:23:20.842Z,12.13
2023-01-25T01:25:51.053Z,12.05
2023-01-25T01:28:20.833Z,12.82
2023-01-25T01:30:52.283Z,13.52
2023-01-25T01:33:21.909Z,13.50
2023-01-25T01:35:51.182Z,13.45
2023-01-25T01:38:20.899Z,15.40
2023-01-25T01:40:51.302Z,13.55
2023-01-25T01:43:22.797Z,14.00
2023-01-25T01:45:59.202Z,13.20
2023-01-25T01:48:38.333Z,13.15
2023-01-25T01:51:18.667Z,14.93
2023-01-25T01:53:52.794Z,13.13
2023-01-25T01:56:27.807Z,14.30
2023-01-25T01:58:59.906Z,13.18
2023-01-25T02:01:30.822Z,13.30
2023-01-25T02:04:02.186Z,13.07
2023-01-25T02:09:06.189Z,11.98
2023-01-25T02:11:37.542Z,13.43
2023-01-25T02:14:08.262Z,12.18
2023-01-25T02:16:39.246Z,12.93
2023-01-25T02:19:10.977Z,12.63
2023-01-25T02:21:45.049Z,12.68
2023-01-25T02:24:18.848Z,13.00
2023-01-25T02:26:49.682Z,12.30
2023-01-25T02:29:20.543Z,13.02
2023-01-25T02:31:52.876Z,13.50
2023-01-25T02:34:22.854Z,13.20
2023-01-25T02:36:52.225Z,13.38
2023-01-25T02:39:24.359Z,14.65
2023-01-25T02:41:55.622Z,14.50
2023-01-25T02:44:28.205Z,13.57
2023-01-25T02:46:57.726Z,12.63
2023-01-25T02:49:28.065Z,12.82
2023-01-25T02:51:58.990Z,12.77
2023-01-25T02:54:28.751Z,13.27
2023-01-25T02:56:59.738Z,14.75
2023-01-25T02:59:29.563Z,15.10
2023-01-25T03:01:59.213Z,13.60
2023-01-25T03:04:28.981Z,14.27
2023-01-25T03:06:58.455Z,13.45
2023-01-25T03:09:28.217Z,13.68
2023-01-25T03:11:58.937Z,14.65
2023-01-25T03:16:57.614Z,15.35
2023-01-25T03:19:27.283Z,14.25
2023-01-25T03:21:56.547Z,13.35
2023-01-25T03:24:26.334Z,13.90
2023-01-25T03:27:14.577Z,15.25
2023-01-25T03:29:46.358Z,15.73
2023-01-25T03:32:15.727Z,15.52
2023-01-25T03:34:45.604Z,12.90
2023-01-25T03:37:14.969Z,14.70
2023-01-25T03:39:44.594Z,14.77
2023-01-25T03:42:14.062Z,12.88
2023-01-25T03:44:45.175Z,14.57
2023-01-25T03:49:44.946Z,13.60
2023-01-25T03:52:14.402Z,13.98
2023-01-25T03:54:44.230Z,14.52
2023-01-25T03:57:13.475Z,13.70
2023-01-25T03:59:50.608Z,12.73
2023-01-25T04:02:20.048Z,13.23
2023-01-25T04:04:49.888Z,12.93
2023-01-25T04:07:19.322Z,13.30
2023-01-25T04:09:50.482Z,13.30
2023-01-25T04:12:19.919Z,11.95
2023-01-25T04:14:51.007Z,13.38
2023-01-25T04:17:20.287Z,13.18
2023-01-25T04:19:50.185Z,13.85
2023-01-25T04:22:20.364Z,11.82
2023-01-25T04:24:49.962Z,14.93
2023-01-25T04:27:19.250Z,11.95
2023-01-25T04:29:50.960Z,13.68
2023-01-25T04:34:50.185Z,13.13
2023-01-25T04:37:20.059Z,13.20
2023-01-25T04:39:49.967Z,13.03
2023-01-25T04:42:19.676Z,12.73
2023-01-25T04:44:51.039Z,11.55
2023-01-25T04:47:20.317Z,11.82
2023-01-25T04:49:50.343Z,12.25
2023-01-25T04:54:50.977Z,14.68
2023-01-25T04:57:20.373Z,13.57
2023-01-25T04:59:51.675Z,13.45
2023-01-25T05:02:21.134Z,14.73
2023-01-25T05:04:50.820Z,13.13
2023-01-25T05:07:20.241Z,14.52
2023-01-25T05:09:49.980Z,14.40
2023-01-25T05:12:19.262Z,14.32
2023-01-25T05:14:49.087Z,13.35
2023-01-25T05:17:19.816Z,16.08
2023-01-25T05:19:50.019Z,16.10
2023-01-25T05:22:21.258Z,14.35
2023-01-25T05:24:51.597Z,15.85
2023-01-25T05:27:21.505Z,16.05
2023-01-25T05:29:51.106Z,15.77
2023-01-25T05:32:24.451Z,16.55
2023-01-25T05:34:54.461Z,15.80
2023-01-25T05:37:24.077Z,18.23
2023-01-25T05:39:53.760Z,17.65
2023-01-25T05:42:23.204Z,15.45
2023-01-25T05:44:52.838Z,16.48
2023-01-25T05:47:23.579Z,18.65
2023-01-25T05:52:22.178Z,17.38
2023-01-25T05:54:51.849Z,17.13
2023-01-25T05:57:21.422Z,20.20
2023-01-25T05:59:51.232Z,19.52
2023-01-25T06:02:20.906Z,21.75
2023-01-25T06:04:52.314Z,19.40
2023-01-25T06:07:23.378Z,19.48
2023-01-25T06:09:54.478Z,19.52
2023-01-25T06:12:24.395Z,20.48
2023-01-25T06:14:54.322Z,21.88
2023-01-25T06:17:23.771Z,22.23
2023-01-25T06:19:54.849Z,21.42
2023-01-25T06:22:24.318Z,23.45
2023-01-25T06:24:54.189Z,20.48
2023-01-25T06:27:23.486Z,22.02
2023-01-25T06:29:53.614Z,20.30
2023-01-25T06:32:24.437Z,21.65
2023-01-25T06:34:55.607Z,24.42
2023-01-25T06:37:25.586Z,24.38
2023-01-25T06:39:55.280Z,25.70
2023-01-25T06:42:26.602Z,23.17
2023-01-25T06:44:56.271Z,22.45
2023-01-25T06:47:25.640Z,23.13
2023-01-25T06:49:56.760Z,23.17
2023-01-25T06:52:26.099Z,24.25
2023-01-25T06:54:55.900Z,23.58
2023-01-25T06:57:25.253Z,25.90
2023-01-25T06:59:54.883Z,21.98
2023-01-25T07:02:24.309Z,22.25
2023-01-25T07:04:53.984Z,21.17
2023-01-25T07:07:24.771Z,22.23
2023-01-25T07:09:54.398Z,19.98
2023-01-25T07:12:23.757Z,22.77
2023-01-25T07:14:53.595Z,21.50
2023-01-25T07:17:23.248Z,25.20
2023-01-25T07:19:52.888Z,23.58
2023-01-25T07:22:23.667Z,23.27
2023-01-25T07:24:54.179Z,22.60
2023-01-25T07:27:23.558Z,22.17
2023-01-25T07:29:53.220Z,22.10
2023-01-25T07:32:22.894Z,22.88
2023-01-25T07:34:52.570Z,23.67
2023-01-25T07:37:21.940Z,21.30
2023-01-25T07:39:53.147Z,24.85
2023-01-25T07:42:22.896Z,22.70
2023-01-25T07:44:52.886Z,24.23
2023-01-25T07:47:22.176Z,23.63
2023-01-25T07:49:51.809Z,21.10
2023-01-25T07:52:21.143Z,21.75
2023-01-25T07:54:52.265Z,22.90
2023-01-25T07:57:21.995Z,23.40
2023-01-25T07:59:51.610Z,22.83
2023-01-25T08:02:21.586Z,24.10
2023-01-25T08:04:51.555Z,21.77
2023-01-25T08:07:23.672Z,22.42
2023-01-25T08:09:54.881Z,18.20
2023-01-25T08:14:55.992Z,21.92
2023-01-25T08:17:25.465Z,22.40
2023-01-25T08:19:55.706Z,17.60
2023-01-25T08:22:25.571Z,21.83
2023-01-25T08:24:57.013Z,20.13
2023-01-25T08:27:26.507Z,23.70
2023-01-25T08:29:56.125Z,24.58
2023-01-25T08:32:25.615Z,21.67
2023-01-25T08:34:55.458Z,22.80
2023-01-25T08:37:25.977Z,23.95
2023-01-25T08:40:27.321Z,23.02
2023-01-25T08:42:58.144Z,24.40
2023-01-25T08:45:27.871Z,25.08
2023-01-25T08:47:57.571Z,24.48
2023-01-25T08:50:27.257Z,24.25
2023-01-25T08:52:56.539Z,24.50
2023-01-25T08:55:26.609Z,24.40
2023-01-25T08:57:57.728Z,25.10
2023-01-25T09:00:27.646Z,27.70
2023-01-25T09:02:56.926Z,25.90
2023-01-25T09:05:26.571Z,26.02
2023-01-25T09:07:56.042Z,25.80
2023-01-25T09:10:25.646Z,28.25
2023-01-25T09:12:55.186Z,28.63
2023-01-25T09:15:26.478Z,25.10
2023-01-25T09:17:56.966Z,23.92
2023-01-25T09:20:26.932Z,24.70
2023-01-25T09:22:57.583Z,24.50
2023-01-25T09:27:56.612Z,23.95
2023-01-25T09:30:40.809Z,24.50
2023-01-25T09:33:16.869Z,27.15
2023-01-25T09:35:50.459Z,28.23
2023-01-25T09:38:19.886Z,28.77
2023-01-25T09:41:00.856Z,23.38
2023-01-25T09:43:44.951Z,25.23
2023-01-25T09:46:24.222Z,27.05
2023-01-25T09:49:07.754Z,26.50
2023-01-25T09:51:53.210Z,24.50
2023-01-25T09:54:23.811Z,30.23
2023-01-25T09:56:54.492Z,28.08
2023-01-25T09:59:27.843Z,23.85
2023-01-25T10:02:03.457Z,24.70
2023-01-25T10:04:38.805Z,24.70
2023-01-25T10:07:20.482Z,24.55
2023-01-25T10:09:55.563Z,25.45
2023-01-25T10:12:27.280Z,25.95
2023-01-25T10:14:56.913Z,26.77
2023-01-25T10:17:33.617Z,27.52
2023-01-25T10:20:17.287Z,25.45
2023-01-25T10:22:52.123Z,26.65
2023-01-25T10:25:26.406Z,23.20
2023-01-25T10:28:14.619Z,24.20
2023-01-25T10:30:52.895Z,28.55
2023-01-25T10:33:24.057Z,26.10
2023-01-25T10:35:53.585Z,24.60
2023-01-25T10:38:28.938Z,23.58
2023-01-25T10:41:03.805Z,26.70
2023-01-25T10:43:33.423Z,24.95
2023-01-25T10:46:04.074Z,25.63
2023-01-25T10:48:38.135Z,26.60
2023-01-25T10:51:07.714Z,27.00
2023-01-25T10:53:40.223Z,25.67
2023-01-25T10:56:26.027Z,22.88
2023-01-25T10:59:09.255Z,20.70
2023-01-25T11:01:39.575Z,24.38
2023-01-25T11:04:30.141Z,23.13
2023-01-25T11:07:00.117Z,21.43
2023-01-25T11:09:38.572Z,20.27
2023-01-25T11:12:20.120Z,21.88
2023-01-25T11:14:53.869Z,21.38
2023-01-25T11:17:30.625Z,19.50
2023-01-25T11:20:17.938Z,19.33
2023-01-25T11:22:55.564Z,20.55
2023-01-25T11:25:31.258Z,20.13
2023-01-25T11:28:14.114Z,20.45
2023-01-25T11:30:43.976Z,23.13
2023-01-25T11:33:14.671Z,20.98
2023-01-25T11:38:25.711Z,21.53
2023-01-25T11:41:02.566Z,21.60
2023-01-25T11:44:00.704Z,21.08
2023-01-25T11:46:47.928Z,20.77
2023-01-25T11:49:29.153Z,21.45
2023-01-25T11:52:13.195Z,20.00
2023-01-25T11:54:51.757Z,21.50
2023-01-25T11:57:36.475Z,25.00
2023-01-25T12:00:23.624Z,23.48
2023-01-25T12:03:34.759Z,21.05
2023-01-25T12:06:10.697Z,20.30
2023-01-25T12:09:03.831Z,20.85
2023-01-25T12:11:45.819Z,21.42
2023-01-25T12:14:31.082Z,21.02
2023-01-25T12:17:17.394Z,20.67
2023-01-25T12:20:03.651Z,18.63
2023-01-25T12:22:47.706Z,18.42
2023-01-25T12:25:26.940Z,18.67
2023-01-25T12:28:09.488Z,17.60
2023-01-25T12:30:51.439Z,20.13
2023-01-25T12:33:25.536Z,21.45
2023-01-25T12:36:01.356Z,21.05
2023-01-25T12:38:38.431Z,21.42
2023-01-25T12:41:20.736Z,21.20
2023-01-25T12:43:56.205Z,20.50
2023-01-25T12:46:30.411Z,20.77
2023-01-25T12:49:04.839Z,21.30
2023-01-25T12:51:43.184Z,20.20
2023-01-25T12:54:19.392Z,21.90
2023-01-25T12:57:00.924Z,20.13
2023-01-25T12:59:39.810Z,20.77
2023-01-25T13:02:24.646Z,23.65
2023-01-25T13:05:03.099Z,21.95
2023-01-25T13:07:41.124Z,22.52
2023-01-25T13:10:20.517Z,22.33
2023-01-25T13:12:57.567Z,23.88
2023-01-25T13:15:44.156Z,24.13
2023-01-25T13:18:42.534Z,22.27
2023-01-25T13:21:33.683Z,24.10
2023-01-25T13:24:22.503Z,25.83
2023-01-25T13:27:04.181Z,22.48
2023-01-25T13:30:24.232Z,24.48
2023-01-25T13:32:58.550Z,23.10
2023-01-25T13:35:31.069Z,25.48
2023-01-25T13:38:26.384Z,23.42
2023-01-25T13:41:12.460Z,26.33
2023-01-25T13:43:42.931Z,23.92
2023-01-25T13:46:16.336Z,25.67
2023-01-25T13:49:00.419Z,25.67
2023-01-25T13:51:33.017Z,26.42
2023-01-25T13:54:02.641Z,25.00
2023-01-25T13:56:39.942Z,23.87
2023-01-25T13:59:25.003Z,29.50
2023-01-25T14:01:55.056Z,23.92
2023-01-25T14:04:24.580Z,25.90
2023-01-25T14:06:59.630Z,24.63
2023-01-25T14:09:29.373Z,25.92
2023-01-25T14:12:02.958Z,26.07
2023-01-25T14:14:34.519Z,27.30
2023-01-25T14:17:21.189Z,24.70
2023-01-25T14:19:51.895Z,27.00
2023-01-25T14:27:44.894Z,24.92
2023-01-25T14:30:23.202Z,27.60
2023-01-25T14:32:55.017Z,25.70
2023-01-25T14:36:11.600Z,26.92
2023-01-25T14:38:37.508Z,28.52
2023-01-25T14:41:14.246Z,24.65
2023-01-25T14:43:48.423Z,25.20
2023-01-25T14:46:22.230Z,25.65
2023-01-25T14:48:53.020Z,27.05
2023-01-25T14:51:29.123Z,24.25
2023-01-25T14:54:03.082Z,25.20
2023-01-25T14:56:38.302Z,23.75
2023-01-25T14:59:21.732Z,24.95
2023-01-25T15:01:54.520Z,22.73
2023-01-25T15:04:25.083Z,22.30
2023-01-25T15:06:58.908Z,23.43
2023-01-25T15:09:42.549Z,22.65
2023-01-25T15:12:33.125Z,22.25
2023-01-25T15:15:04.373Z,22.77
2023-01-25T15:17:45.708Z,23.42
2023-01-25T15:20:36.805Z,22.63
2023-01-25T15:23:23.599Z,21.17
2023-01-25T15:25:55.264Z,22.30
2023-01-25T15:28:26.159Z,22.17
2023-01-25T15:30:59.769Z,21.77
2023-01-25T15:33:32.617Z,20.17
2023-01-25T15:36:02.355Z,21.30
2023-01-25T15:38:31.670Z,20.95
2023-01-25T15:41:01.817Z,20.73
2023-01-25T15:43:31.283Z,20.65
2023-01-25T15:46:02.962Z,21.48
2023-01-25T15:48:35.041Z,20.95
2023-01-25T15:51:05.161Z,20.30
2023-01-25T15:53:34.585Z,22.70
2023-01-25T15:56:20.911Z,22.58
2023-01-25T15:58:53.138Z,20.67
2023-01-25T16:01:27.559Z,20.05
2023-01-25T16:03:57.345Z,19.50
2023-01-25T16:06:38.868Z,20.70
2023-01-25T16:09:20.018Z,19.00
2023-01-25T16:11:52.333Z,18.88
2023-01-25T16:14:23.864Z,19.15
2023-01-25T16:16:55.600Z,20.73
2023-01-25T16:19:27.635Z,19.48
2023-01-25T16:21:57.464Z,19.02
2023-01-25T16:24:26.868Z,20.30
2023-01-25T16:26:58.524Z,18.83
2023-01-25T16:29:28.472Z,20.38
2023-01-25T16:32:00.063Z,19.50
2023-01-25T16:37:00.126Z,18.02
2023-01-25T16:39:29.715Z,27.98
2023-01-25T16:41:59.879Z,21.90
2023-01-25T16:44:29.211Z,20.25
2023-01-25T16:47:00.450Z,19.45
2023-01-25T16:49:30.826Z,20.35
2023-01-25T16:52:00.852Z,21.15
2023-01-25T16:54:30.568Z,19.35
2023-01-25T16:57:05.819Z,21.90
2023-01-25T16:59:38.254Z,24.40
2023-01-25T17:02:13.032Z,21.98
2023-01-25T17:04:42.466Z,22.65
2023-01-25T17:07:12.761Z,24.60
2023-01-25T17:09:42.391Z,25.42
2023-01-25T17:12:14.312Z,26.00
2023-01-25T17:14:43.693Z,27.48
2023-01-25T17:17:15.109Z,26.70
2023-01-25T17:19:44.719Z,25.25
2023-01-25T17:22:14.435Z,26.52
2023-01-25T17:24:43.785Z,26.02
2023-01-25T17:27:25.501Z,25.48
2023-01-25T17:29:54.901Z,24.77
2023-01-25T17:32:26.295Z,24.15
2023-01-25T17:34:59.257Z,26.02
2023-01-25T17:37:29.060Z,28.45
2023-01-25T17:39:59.099Z,26.10
2023-01-25T17:42:28.886Z,28.40
2023-01-25T17:44:58.394Z,30.88
2023-01-25T17:47:31.847Z,27.38
2023-01-25T17:50:01.112Z,26.35
2023-01-25T17:52:31.010Z,27.17
2023-01-25T17:55:00.720Z,25.02
2023-01-25T17:57:32.767Z,27.20
2023-01-25T18:00:02.066Z,30.65
2023-01-25T18:02:33.786Z,28.65
2023-01-25T18:05:03.251Z,27.67
2023-01-25T18:07:32.935Z,26.15
2023-01-25T18:10:02.232Z,24.88
2023-01-25T18:12:32.329Z,25.38
2023-01-25T18:15:03.177Z,25.35
2023-01-25T18:17:38.446Z,28.48
2023-01-25T18:20:10.903Z,26.55
2023-01-25T18:22:41.947Z,25.42
2023-01-25T18:25:31.887Z,25.98
2023-01-25T18:28:01.708Z,25.87
2023-01-25T18:30:40.339Z,24.85
2023-01-25T18:33:11.896Z,25.08
2023-01-25T18:35:43.521Z,26.55
2023-01-25T18:38:14.573Z,24.20
2023-01-25T18:40:44.749Z,25.27
2023-01-25T18:43:16.828Z,25.58
2023-01-25T18:45:48.502Z,27.83
2023-01-25T18:48:21.536Z,24.45
2023-01-25T18:50:52.621Z,23.75
2023-01-25T18:53:22.367Z,27.50
2023-01-25T18:56:01.426Z,22.48
2023-01-25T18:58:33.387Z,25.73
2023-01-25T19:01:05.602Z,26.63
2023-01-25T19:03:37.194Z,25.27
2023-01-25T19:06:06.963Z,22.92
2023-01-25T19:08:41.469Z,23.38
2023-01-25T19:11:14.726Z,22.55
2023-01-25T19:13:46.833Z,21.50
2023-01-25T19:16:19.976Z,22.33
2023-01-25T19:19:02.753Z,23.55
2023-01-25T19:21:34.888Z,23.75
2023-01-25T19:24:05.433Z,21.95
2023-01-25T19:26:34.942Z,24.83
2023-01-25T19:29:04.820Z,21.77
2023-01-25T19:31:36.983Z,21.58
2023-01-25T19:34:09.588Z,20.90
2023-01-25T19:36:45.918Z,22.08
2023-01-25T19:39:15.952Z,22.23
2023-01-25T19:41:45.239Z,20.52
2023-01-25T19:44:16.600Z,20.05
2023-01-25T19:46:46.299Z,22.25
2023-01-25T19:49:22.570Z,22.80
2023-01-25T19:51:54.428Z,24.10
2023-01-25T19:54:25.099Z,23.13
2023-01-25T19:56:54.602Z,22.98
2023-01-25T19:59:27.869Z,21.35
2023-01-25T20:01:58.924Z,21.20
2023-01-25T20:04:30.652Z,22.85
2023-01-25T20:07:00.051Z,22.02
2023-01-25T20:09:30.437Z,22.20
2023-01-25T20:12:01.549Z,21.60
2023-01-25T20:14:32.364Z,20.63
2023-01-25T20:17:04.048Z,18.40
2023-01-25T20:19:37.383Z,19.95
2023-01-25T20:22:07.233Z,20.25
2023-01-25T20:24:37.478Z,23.07
2023-01-25T20:27:07.687Z,20.88
2023-01-25T20:29:38.314Z,22.80
2023-01-25T20:32:09.657Z,21.27
2023-01-25T20:34:42.210Z,20.13
2023-01-25T20:37:12.987Z,21.90
2023-01-25T20:42:12.694Z,18.95
2023-01-25T20:44:42.670Z,19.88
2023-01-25T20:47:12.159Z,20.35
2023-01-25T20:49:46.659Z,19.35
2023-01-25T20:52:16.170Z,19.30
2023-01-25T20:54:47.518Z,20.77
2023-01-25T20:59:47.820Z,17.50
2023-01-25T21:02:17.983Z,18.92
2023-01-25T21:04:50.254Z,19.08
2023-01-25T21:09:48.961Z,17.80
2023-01-25T21:12:18.648Z,18.83
2023-01-25T21:14:49.033Z,17.95
2023-01-25T21:17:18.557Z,18.88
2023-01-25T21:19:51.807Z,18.70
2023-01-25T21:22:22.483Z,18.33
2023-01-25T21:24:52.958Z,17.70
2023-01-25T21:27:23.199Z,19.15
2023-01-25T21:29:52.985Z,18.33
2023-01-25T21:32:23.611Z,17.65
2023-01-25T21:37:23.980Z,16.65
2023-01-25T21:39:54.717Z,16.15
2023-01-25T21:42:24.351Z,16.65
2023-01-25T21:45:13.670Z,16.63
2023-01-25T21:47:43.116Z,15.68
2023-01-25T21:50:32.558Z,16.30
2023-01-25T21:53:02.093Z,17.33
2023-01-25T21:55:31.739Z,16.05
2023-01-25T21:58:01.018Z,16.15
2023-01-25T22:00:31.195Z,16.75
2023-01-25T22:03:00.812Z,15.40
2023-01-25T22:05:31.958Z,18.02
2023-01-25T22:08:01.258Z,15.38
2023-01-25T22:10:31.595Z,16.58
2023-01-25T22:13:01.028Z,15.52
2023-01-25T22:15:31.252Z,16.60
2023-01-25T22:18:00.570Z,17.08
2023-01-25T22:20:31.729Z,17.70
2023-01-25T22:23:01.149Z,17.20
2023-01-25T22:25:31.182Z,17.53
2023-01-25T22:28:02.124Z,17.08
2023-01-25T22:30:31.803Z,17.15
2023-01-25T22:33:01.305Z,17.70
2023-01-25T22:35:32.847Z,16.50
2023-01-25T22:38:02.253Z,17.55
2023-01-25T22:40:31.883Z,16.08
2023-01-25T22:43:01.137Z,17.73
2023-01-25T22:45:30.760Z,18.15
2023-01-25T22:48:00.135Z,16.95
2023-01-25T22:50:29.810Z,17.60
2023-01-25T22:53:00.566Z,18.58
2023-01-25T22:55:32.016Z,17.60
2023-01-25T23:00:30.609Z,18.80
2023-01-25T23:03:00.213Z,16.83
2023-01-25T23:05:30.114Z,17.98
2023-01-25T23:08:00.985Z,18.60
2023-01-25T23:10:31.233Z,17.08
2023-01-25T23:13:00.542Z,18.80
2023-01-25T23:15:30.162Z,18.10
2023-01-25T23:18:17.086Z,17.55
2023-01-25T23:20:46.722Z,16.92
2023-01-25T23:23:17.529Z,17.83
2023-01-25T23:28:17.378Z,15.50
2023-01-25T23:30:47.356Z,18.92
2023-01-25T23:33:16.882Z,18.33
2023-01-25T23:35:46.668Z,16.98
2023-01-25T23:38:17.443Z,16.05
2023-01-25T23:40:47.363Z,16.75
2023-01-25T23:43:16.648Z,18.27
2023-01-25T23:45:46.509Z,17.25
2023-01-25T23:48:15.835Z,17.60
2023-01-25T23:50:45.465Z,16.38
2023-01-25T23:53:14.739Z,16.77
2023-01-25T23:55:53.681Z,17.73
2023-01-25T23:58:23.256Z,17.40
